Carl Junction, Missouri
Current Conditions -  °F | °C
As of 12:53 PM on Friday 28 Nov 2014 (Local Time) from KJLN Reporting Station
Clear Clear  
Wind Chill: 61°   Ceiling: Unl
Heat Index: 61°   Visibility: 10mi
Dew Point: 34°   Wind: 23mph
Humidity: 36%   Direction: 200°SSW
Pressure: 29.95"   Gusts: 32mph
Location:  37.18°N, 94.57°W
Report Text: KJLN 281853Z 20020G28KT 10SM CLR 16/01 A2995 RMK AO2 PK WND 20031/1756 SLP143 T01610011
Loading
Personal Weather Stations






























Interactive Weather Map New forecast layout! Learn more

10-Day Weather Forecast

Advertisements
Track Severe Weather on mobile